Time;durP1;ratioP1;P1;durP2;ratioP2;P2;SDS_P1;SDS_P2;PMS_P1;PMS_P2;Temp;Humidity;BMP_temperature;BMP_pressure;BME280_temperature;BME280_humidity;BME280_pressure;Samples;Min_cycle;Max_cycle;Signal;HPM_P1;HPM_P2
2023/05/06 00:01:03;;;;;;;5.55;4.88;;;;;;;;;;5088673;28;20081;-78
2023/05/06 00:03:29;;;;;;;5.43;4.88;;;;;;;;;;5093288;28;20059;-78
2023/05/06 00:05:55;;;;;;;6.07;5.25;;;;;;;;;;5092923;28;20032;-78
2023/05/06 00:08:21;;;;;;;6.47;5.10;;;;;;;;;;5092605;28;20477;-78
2023/05/06 00:10:47;;;;;;;6.88;4.93;;;;;;;;;;5093482;28;20112;-78
2023/05/06 00:13:13;;;;;;;5.40;4.90;;;;;;;;;;5093104;28;20031;-78
2023/05/06 00:15:39;;;;;;;4.93;4.43;;;;;;;;;;5092893;28;20024;-78
2023/05/06 00:18:06;;;;;;;6.03;4.68;;;;;;;;;;5092921;28;20382;-78
2023/05/06 00:20:32;;;;;;;5.80;4.65;;;;;;;;;;5092460;28;20036;-78
2023/05/06 00:22:58;;;;;;;5.28;4.65;;;;;;;;;;5092932;28;20016;-78
2023/05/06 00:25:24;;;;;;;5.90;4.93;;;;;;;;;;5092435;28;20078;-78
2023/05/06 00:27:50;;;;;;;5.72;5.13;;;;;;;;;;5073834;28;20043;-78
2023/05/06 00:30:16;;;;;;;7.38;5.57;;;;;;;;;;5093122;28;20028;-78
2023/05/06 00:32:42;;;;;;;7.00;5.00;;;;;;;;;;5093952;28;20099;-78
2023/05/06 00:35:08;;;;;;;7.70;6.03;;;;;;;;;;5075043;28;20119;-78
2023/05/06 00:37:34;;;;;;;7.95;6.18;;;;;;;;;;5093275;28;20035;-78
2023/05/06 00:40:02;;;;;;;8.90;6.57;;;;;;;;;;5092699;28;20027;-78
2023/05/06 00:42:28;;;;;;;9.45;6.93;;;;;;;;;;5093322;28;20020;-78
2023/05/06 00:44:54;;;;;;;9.95;7.85;;;;;;;;;;5093247;28;20491;-78
2023/05/06 00:47:21;;;;;;;7.70;6.78;;;;;;;;;;5093319;28;20086;-78
2023/05/06 00:49:47;;;;;;;11.43;8.15;;;;;;;;;;5074524;28;20032;-78
2023/05/06 00:52:13;;;;;;;10.25;7.28;;;;;;;;;;5092665;28;20031;-78
2023/05/06 00:54:39;;;;;;;9.45;7.25;;;;;;;;;;5092632;28;20039;-78
2023/05/06 00:57:05;;;;;;;9.63;7.10;;;;;;;;;;5091427;28;20036;-78
2023/05/06 00:59:31;;;;;;;8.48;6.32;;;;;;;;;;5091576;28;20048;-78
2023/05/06 01:01:58;;;;;;;9.10;7.13;;;;;;;;;;5090376;28;20028;-78
2023/05/06 01:04:24;;;;;;;9.70;7.22;;;;;;;;;;5092717;28;20016;-78
2023/05/06 01:06:55;;;;;;;9.85;7.03;;;;;;;;;;5091983;28;20482;-78
2023/05/06 01:09:33;;;;;;;12.70;7.05;;;;;;;;;;5074541;28;20052;-78
2023/05/06 01:12:04;;;;;;;13.45;7.75;;;;;;;;;;5092454;28;20020;-78
2023/05/06 01:14:38;;;;;;;10.38;7.38;;;;;;;;;;5093722;28;20030;-78
2023/05/06 01:17:05;;;;;;;9.63;7.20;;;;;;;;;;5089902;28;20024;-78
2023/05/06 01:19:47;;;;;;;10.70;7.53;;;;;;;;;;5085440;28;20543;-78
2023/05/06 01:22:14;;;;;;;13.00;7.85;;;;;;;;;;5093296;28;20129;-78
2023/05/06 01:24:42;;;;;;;11.40;7.45;;;;;;;;;;5093153;28;20036;-78
2023/05/06 01:27:08;;;;;;;9.82;6.97;;;;;;;;;;5092529;28;20032;-78
2023/05/06 01:29:36;;;;;;;10.13;7.22;;;;;;;;;;5093429;28;20074;-78
2023/05/06 01:32:08;;;;;;;10.63;6.82;;;;;;;;;;5095007;28;20032;-79
2023/05/06 01:34:40;;;;;;;11.30;7.70;;;;;;;;;;5090696;28;20028;-78
2023/05/06 01:37:11;;;;;;;10.60;7.07;;;;;;;;;;5092832;28;20036;-78
2023/05/06 01:39:38;;;;;;;11.63;7.65;;;;;;;;;;5087343;28;20054;-78
2023/05/06 01:42:05;;;;;;;11.38;7.20;;;;;;;;;;5095315;28;20153;-79
2023/05/06 01:44:32;;;;;;;10.55;6.80;;;;;;;;;;5095072;28;20411;-78
2023/05/06 01:46:58;;;;;;;10.45;6.72;;;;;;;;;;5076876;28;20039;-79
2023/05/06 01:49:25;;;;;;;11.10;7.35;;;;;;;;;;5095247;28;20024;-78
2023/05/06 01:51:51;;;;;;;11.77;7.10;;;;;;;;;;5075546;28;20032;-78
2023/05/06 01:54:17;;;;;;;12.43;7.50;;;;;;;;;;5093251;28;20024;-78
2023/05/06 01:56:43;;;;;;;10.68;6.85;;;;;;;;;;5092716;28;20032;-78
2023/05/06 01:59:09;;;;;;;10.68;7.82;;;;;;;;;;5092947;28;20093;-79
2023/05/06 02:01:35;;;;;;;10.23;6.80;;;;;;;;;;5093222;28;20032;-78
2023/05/06 02:04:01;;;;;;;11.05;6.90;;;;;;;;;;5093088;28;20224;-78
2023/05/06 02:06:27;;;;;;;9.75;6.88;;;;;;;;;;5093692;28;20031;-78
2023/05/06 02:08:53;;;;;;;9.77;6.70;;;;;;;;;;5092352;28;20051;-78
2023/05/06 02:11:19;;;;;;;8.43;6.15;;;;;;;;;;5091854;28;20099;-78
2023/05/06 02:13:45;;;;;;;10.82;6.90;;;;;;;;;;5091381;28;20028;-78
2023/05/06 02:16:11;;;;;;;11.02;6.45;;;;;;;;;;5091446;28;20028;-78
2023/05/06 02:18:37;;;;;;;8.88;6.57;;;;;;;;;;5091109;28;20032;-78
2023/05/06 02:21:03;;;;;;;9.35;6.57;;;;;;;;;;5072744;28;20024;-78
2023/05/06 02:23:29;;;;;;;11.80;6.82;;;;;;;;;;5091030;28;20462;-78
2023/05/06 02:25:56;;;;;;;12.60;7.30;;;;;;;;;;5087178;28;20073;-78
2023/05/06 02:28:23;;;;;;;9.77;6.20;;;;;;;;;;5091822;28;20420;-78
2023/05/06 02:30:49;;;;;;;10.45;7.18;;;;;;;;;;5093091;28;20030;-78
2023/05/06 02:33:15;;;;;;;8.93;6.00;;;;;;;;;;5094068;28;20016;-79
2023/05/06 02:35:41;;;;;;;11.95;7.38;;;;;;;;;;5092657;28;20394;-78
2023/05/06 02:38:07;;;;;;;14.00;7.22;;;;;;;;;;5091373;28;20073;-78
2023/05/06 02:40:33;;;;;;;10.02;7.15;;;;;;;;;;5091169;28;20036;-78
2023/05/06 02:42:59;;;;;;;10.93;7.00;;;;;;;;;;5090959;28;20024;-78
2023/05/06 02:45:25;;;;;;;10.50;6.45;;;;;;;;;;5090772;28;20409;-78
2023/05/06 02:47:51;;;;;;;9.65;6.50;;;;;;;;;;5090789;28;20047;-78
2023/05/06 02:50:17;;;;;;;9.60;6.80;;;;;;;;;;5090878;28;20562;-78
2023/05/06 02:52:43;;;;;;;10.15;7.03;;;;;;;;;;5090516;28;20028;-78
2023/05/06 02:55:10;;;;;;;11.63;7.22;;;;;;;;;;5090171;28;20024;-78
2023/05/06 02:57:36;;;;;;;10.40;6.75;;;;;;;;;;5090619;28;20028;-78
2023/05/06 03:00:02;;;;;;;9.88;6.43;;;;;;;;;;5068452;28;20102;-78
2023/05/06 03:02:28;;;;;;;10.25;7.15;;;;;;;;;;5070084;28;20566;-78
2023/05/06 03:04:54;;;;;;;11.30;7.25;;;;;;;;;;5069999;28;20033;-78
2023/05/06 03:07:20;;;;;;;11.02;7.50;;;;;;;;;;5070037;28;20545;-78
2023/05/06 03:09:46;;;;;;;11.45;7.75;;;;;;;;;;5070029;28;20123;-78
2023/05/06 03:12:12;;;;;;;14.40;7.82;;;;;;;;;;5069717;28;20129;-78
2023/05/06 03:14:38;;;;;;;11.20;7.45;;;;;;;;;;5070081;28;20078;-78
2023/05/06 03:17:04;;;;;;;10.48;7.30;;;;;;;;;;5069849;28;20398;-78
2023/05/06 03:19:30;;;;;;;11.55;7.50;;;;;;;;;;5070034;28;20055;-77
2023/05/06 03:21:56;;;;;;;11.02;7.88;;;;;;;;;;5072260;28;20064;-77
2023/05/06 03:24:22;;;;;;;13.70;7.90;;;;;;;;;;5073711;28;20058;-77
2023/05/06 03:26:48;;;;;;;10.63;7.55;;;;;;;;;;5073293;28;20033;-77
2023/05/06 03:29:14;;;;;;;11.15;7.45;;;;;;;;;;5073304;28;20506;-77
2023/05/06 03:31:40;;;;;;;12.15;7.45;;;;;;;;;;5073885;28;20025;-77
2023/05/06 03:34:06;;;;;;;14.63;7.93;;;;;;;;;;5067403;28;20057;-78
2023/05/06 03:36:32;;;;;;;10.93;5.78;;;;;;;;;;5073178;28;20060;-78
2023/05/06 03:38:58;;;;;;;11.48;6.10;;;;;;;;;;5072662;28;20058;-78
2023/05/06 03:41:24;;;;;;;17.52;6.18;;;;;;;;;;5072472;28;20020;-78
2023/05/06 03:43:51;;;;;;;13.00;6.40;;;;;;;;;;5073418;28;20029;-78
2023/05/06 03:46:17;;;;;;;9.38;6.03;;;;;;;;;;5073473;28;20025;-78
2023/05/06 03:48:43;;;;;;;9.73;6.10;;;;;;;;;;5073901;28;20051;-78
2023/05/06 03:51:09;;;;;;;11.05;5.97;;;;;;;;;;5073367;28;20024;-78
2023/05/06 03:53:35;;;;;;;8.73;6.70;;;;;;;;;;5073514;28;20099;-78
2023/05/06 03:56:01;;;;;;;9.48;6.68;;;;;;;;;;5073938;28;20107;-78
2023/05/06 03:58:27;;;;;;;9.70;6.55;;;;;;;;;;5072047;28;20028;-78
2023/05/06 04:00:53;;;;;;;11.15;6.75;;;;;;;;;;5092183;28;20048;-78
2023/05/06 04:03:19;;;;;;;9.32;6.22;;;;;;;;;;5094445;28;20035;-78
2023/05/06 04:05:46;;;;;;;11.93;7.00;;;;;;;;;;5076319;28;20497;-78
2023/05/06 04:08:11;;;;;;;7.97;5.68;;;;;;;;;;5094501;28;20089;-78
2023/05/06 04:10:38;;;;;;;8.00;6.50;;;;;;;;;;5095704;28;20031;-78
2023/05/06 04:13:05;;;;;;;13.90;7.07;;;;;;;;;;5094815;28;20024;-78
2023/05/06 04:15:33;;;;;;;8.85;7.28;;;;;;;;;;5095918;28;20051;-78
2023/05/06 04:17:59;;;;;;;8.70;7.28;;;;;;;;;;5095177;28;20024;-78
2023/05/06 04:20:25;;;;;;;11.15;7.40;;;;;;;;;;5094692;28;20031;-78
2023/05/06 04:22:51;;;;;;;9.07;7.32;;;;;;;;;;5094576;28;20391;-78
2023/05/06 04:25:18;;;;;;;9.43;7.50;;;;;;;;;;5094152;28;20489;-78
2023/05/06 04:27:44;;;;;;;11.68;8.00;;;;;;;;;;5094808;28;20478;-78
2023/05/06 04:30:11;;;;;;;13.15;8.32;;;;;;;;;;5094687;28;20474;-78
2023/05/06 04:32:37;;;;;;;13.10;8.32;;;;;;;;;;5086972;28;20020;-79
2023/05/06 04:35:03;;;;;;;12.23;8.63;;;;;;;;;;5094801;28;20032;-79
2023/05/06 04:37:29;;;;;;;13.93;8.45;;;;;;;;;;5094911;28;20024;-78
2023/05/06 04:39:56;;;;;;;15.52;9.27;;;;;;;;;;5094111;28;20028;-78
2023/05/06 04:42:22;;;;;;;11.85;8.25;;;;;;;;;;5074601;28;20474;-78
2023/05/06 04:44:48;;;;;;;15.05;9.27;;;;;;;;;;5093278;28;20024;-78
2023/05/06 04:47:14;;;;;;;13.02;8.65;;;;;;;;;;5075614;28;20050;-78
2023/05/06 04:49:41;;;;;;;17.70;8.80;;;;;;;;;;5093141;28;20035;-78
2023/05/06 04:52:07;;;;;;;13.80;8.60;;;;;;;;;;5094139;28;20034;-78
2023/05/06 04:54:33;;;;;;;15.25;8.93;;;;;;;;;;5093024;28;20106;-78
2023/05/06 04:56:59;;;;;;;16.45;9.77;;;;;;;;;;5093272;28;20028;-78
2023/05/06 04:59:25;;;;;;;12.65;9.13;;;;;;;;;;5092016;28;20036;-78
2023/05/06 05:01:51;;;;;;;13.75;9.70;;;;;;;;;;5092499;28;20027;-78
2023/05/06 05:04:18;;;;;;;26.55;11.50;;;;;;;;;;5093281;28;20401;-78
2023/05/06 05:06:44;;;;;;;18.80;10.85;;;;;;;;;;5095793;28;20490;-78
2023/05/06 05:09:10;;;;;;;17.17;10.32;;;;;;;;;;5094733;28;20086;-78
2023/05/06 05:11:37;;;;;;;18.45;11.23;;;;;;;;;;5075634;28;20035;-78
2023/05/06 05:14:03;;;;;;;19.08;11.70;;;;;;;;;;5093335;28;20073;-78
2023/05/06 05:16:29;;;;;;;17.98;11.15;;;;;;;;;;5092428;28;20397;-78
2023/05/06 05:18:55;;;;;;;19.80;11.45;;;;;;;;;;5092956;28;20028;-78
2023/05/06 05:21:22;;;;;;;24.50;12.48;;;;;;;;;;5092709;28;20055;-78
2023/05/06 05:23:47;;;;;;;20.20;11.55;;;;;;;;;;5094493;28;20491;-78
2023/05/06 05:26:13;;;;;;;19.50;13.05;;;;;;;;;;5099489;28;20027;-78
2023/05/06 05:28:39;;;;;;;19.73;11.85;;;;;;;;;;5097977;28;20482;-78
2023/05/06 05:31:05;;;;;;;21.45;13.00;;;;;;;;;;5093633;28;20048;-79
2023/05/06 05:33:31;;;;;;;21.85;12.15;;;;;;;;;;5093965;28;20020;-79
2023/05/06 05:35:58;;;;;;;20.88;12.15;;;;;;;;;;5092340;28;20031;-78
2023/05/06 05:38:24;;;;;;;23.60;12.95;;;;;;;;;;5093789;28;20024;-78
2023/05/06 05:40:51;;;;;;;23.38;12.75;;;;;;;;;;5095457;28;20028;-79
2023/05/06 05:43:18;;;;;;;19.73;12.23;;;;;;;;;;5095909;28;20068;-79
2023/05/06 05:45:44;;;;;;;20.63;12.18;;;;;;;;;;5097447;28;20046;-79
2023/05/06 05:48:10;;;;;;;20.27;11.88;;;;;;;;;;5098413;28;20036;-79
2023/05/06 05:50:36;;;;;;;21.30;12.40;;;;;;;;;;5090012;28;20083;-79
2023/05/06 05:53:02;;;;;;;23.90;13.93;;;;;;;;;;5096622;28;20394;-79
2023/05/06 05:55:29;;;;;;;23.65;13.32;;;;;;;;;;5097207;28;20026;-79
2023/05/06 05:57:55;;;;;;;28.58;15.80;;;;;;;;;;5097775;28;20474;-79
2023/05/06 06:00:21;;;;;;;24.52;15.27;;;;;;;;;;5098801;28;20063;-79
2023/05/06 06:02:47;;;;;;;25.98;15.90;;;;;;;;;;5098043;28;20386;-79
2023/05/06 06:05:13;;;;;;;23.65;14.85;;;;;;;;;;5078790;28;20474;-79
2023/05/06 06:07:39;;;;;;;21.20;13.68;;;;;;;;;;5095797;28;20071;-79
2023/05/06 06:10:06;;;;;;;19.67;12.95;;;;;;;;;;5097045;28;20742;-79
2023/05/06 06:12:32;;;;;;;18.48;12.93;;;;;;;;;;5098107;28;20016;-79
2023/05/06 06:14:58;;;;;;;16.67;11.48;;;;;;;;;;5095392;28;20108;-79
2023/05/06 06:17:23;;;;;;;15.98;10.65;;;;;;;;;;5098530;28;20035;-78
2023/05/06 06:19:50;;;;;;;12.57;9.35;;;;;;;;;;5085823;28;20028;-79
2023/05/06 06:22:16;;;;;;;14.90;9.68;;;;;;;;;;5102404;28;20026;-79
2023/05/06 06:24:43;;;;;;;14.20;9.70;;;;;;;;;;5105255;28;20025;-79
2023/05/06 06:27:09;;;;;;;12.10;8.88;;;;;;;;;;5104786;28;20032;-79
2023/05/06 06:29:35;;;;;;;12.20;9.02;;;;;;;;;;5101748;28;20436;-79
2023/05/06 06:32:02;;;;;;;12.57;8.80;;;;;;;;;;5101684;28;20023;-80
2023/05/06 06:34:28;;;;;;;10.73;8.02;;;;;;;;;;5102737;28;20047;-79
2023/05/06 06:36:54;;;;;;;13.55;9.20;;;;;;;;;;5101692;28;20446;-79
2023/05/06 06:39:20;;;;;;;10.68;7.75;;;;;;;;;;5094092;28;20043;-80
2023/05/06 06:41:46;;;;;;;6.85;5.47;;;;;;;;;;5092187;28;20034;-81
2023/05/06 06:44:12;;;;;;;6.40;5.63;;;;;;;;;;5096410;28;20530;-81
2023/05/06 06:46:38;;;;;;;8.15;6.50;;;;;;;;;;5097050;28;20111;-81
2023/05/06 06:49:04;;;;;;;9.73;7.32;;;;;;;;;;5091741;28;20439;-81
2023/05/06 06:51:31;;;;;;;10.43;7.85;;;;;;;;;;5094478;28;20051;-81
2023/05/06 06:53:57;;;;;;;11.40;8.52;;;;;;;;;;5094059;28;20031;-81
2023/05/06 06:56:23;;;;;;;11.10;8.30;;;;;;;;;;5093787;28;20058;-81
2023/05/06 06:58:49;;;;;;;9.85;7.47;;;;;;;;;;5097768;28;20036;-81
2023/05/06 07:01:15;;;;;;;9.35;7.97;;;;;;;;;;5101662;28;20035;-81
2023/05/06 07:03:41;;;;;;;9.40;8.00;;;;;;;;;;5096400;28;20103;-79
2023/05/06 07:06:07;;;;;;;8.93;7.53;;;;;;;;;;5098770;28;20024;-79
2023/05/06 07:08:33;;;;;;;9.82;8.30;;;;;;;;;;5098290;28;20693;-79
2023/05/06 07:10:59;;;;;;;9.60;8.57;;;;;;;;;;5095458;28;20036;-79
2023/05/06 07:13:25;;;;;;;8.82;7.38;;;;;;;;;;5096829;28;20498;-79
2023/05/06 07:15:51;;;;;;;8.43;6.70;;;;;;;;;;5082480;28;20035;-79
2023/05/06 07:18:17;;;;;;;8.40;7.50;;;;;;;;;;5094986;28;20085;-77
2023/05/06 07:20:43;;;;;;;9.82;7.53;;;;;;;;;;5094725;28;20036;-78
2023/05/06 07:23:09;;;;;;;9.95;7.38;;;;;;;;;;5096029;28;20024;-77
2023/05/06 07:25:35;;;;;;;9.23;7.35;;;;;;;;;;5098835;28;20024;-78
2023/05/06 07:28:01;;;;;;;7.95;7.25;;;;;;;;;;5098193;28;20484;-79
2023/05/06 07:30:27;;;;;;;8.70;7.80;;;;;;;;;;5102133;28;20031;-79
2023/05/06 07:32:53;;;;;;;10.10;8.55;;;;;;;;;;5096837;28;20157;-79
2023/05/06 07:35:19;;;;;;;9.43;8.20;;;;;;;;;;5097886;28;20039;-78
2023/05/06 07:37:45;;;;;;;10.13;8.95;;;;;;;;;;5095119;28;20032;-78
2023/05/06 07:40:11;;;;;;;9.43;8.43;;;;;;;;;;5109470;28;20024;-78
2023/05/06 07:42:37;;;;;;;9.93;8.90;;;;;;;;;;5109471;28;20529;-79
2023/05/06 07:45:04;;;;;;;10.82;9.15;;;;;;;;;;5101794;28;20066;-78
2023/05/06 07:47:31;;;;;;;11.13;9.90;;;;;;;;;;5101135;28;20103;-80
2023/05/06 07:49:57;;;;;;;10.95;9.85;;;;;;;;;;5102144;28;20024;-80
2023/05/06 07:52:23;;;;;;;11.90;10.15;;;;;;;;;;5077017;28;20072;-80
2023/05/06 07:54:50;;;;;;;11.32;10.13;;;;;;;;;;5095075;28;20027;-80
2023/05/06 07:57:16;;;;;;;10.88;9.75;;;;;;;;;;5096482;28;20024;-80
2023/05/06 07:59:43;;;;;;;11.00;9.77;;;;;;;;;;5097388;28;20389;-80
2023/05/06 08:02:09;;;;;;;10.90;9.77;;;;;;;;;;5103006;28;20153;-80
2023/05/06 08:04:35;;;;;;;12.65;10.82;;;;;;;;;;5099175;28;20426;-80
2023/05/06 08:07:01;;;;;;;10.88;9.75;;;;;;;;;;5099488;28;20409;-80
2023/05/06 08:09:27;;;;;;;12.68;10.52;;;;;;;;;;5111027;28;20027;-80
2023/05/06 08:11:53;;;;;;;12.38;11.07;;;;;;;;;;5101289;28;20119;-80
2023/05/06 08:14:19;;;;;;;14.70;13.15;;;;;;;;;;5100218;28;20027;-80
2023/05/06 08:16:45;;;;;;;14.05;12.52;;;;;;;;;;5092898;28;20028;-80
2023/05/06 08:19:11;;;;;;;14.77;12.27;;;;;;;;;;5074849;28;20031;-78
2023/05/06 08:21:38;;;;;;;16.58;12.15;;;;;;;;;;5093393;28;20506;-79
2023/05/06 08:24:04;;;;;;;13.20;11.90;;;;;;;;;;5092387;28;20120;-79
2023/05/06 08:26:30;;;;;;;12.95;11.65;;;;;;;;;;5102227;28;20020;-79
2023/05/06 08:28:57;;;;;;;14.27;12.10;;;;;;;;;;5092370;28;20144;-79
2023/05/06 08:31:23;;;;;;;14.75;13.25;;;;;;;;;;5101070;28;20389;-80
2023/05/06 08:33:50;;;;;;;15.15;13.55;;;;;;;;;;5101726;28;20486;-80
2023/05/06 08:36:16;;;;;;;16.73;13.45;;;;;;;;;;5102931;28;20104;-80
2023/05/06 08:38:47;;;;;;;13.88;12.48;;;;;;;;;;5101228;28;20031;-79
2023/05/06 08:41:16;;;;;;;17.75;13.63;;;;;;;;;;5106490;28;20111;-79
2023/05/06 08:43:42;;;;;;;15.13;13.52;;;;;;;;;;5102942;28;20028;-79
2023/05/06 08:46:08;;;;;;;14.00;12.57;;;;;;;;;;5103462;28;20020;-79
2023/05/06 08:48:36;;;;;;;14.68;13.13;;;;;;;;;;5101716;28;20085;-79
2023/05/06 08:51:02;;;;;;;14.82;13.27;;;;;;;;;;5099166;28;20023;-79
2023/05/06 08:53:29;;;;;;;14.48;13.07;;;;;;;;;;5095027;28;20020;-79
2023/05/06 08:55:57;;;;;;;13.43;12.02;;;;;;;;;;5092379;28;20609;-80
2023/05/06 08:58:24;;;;;;;15.25;11.80;;;;;;;;;;5091901;28;20085;-79
2023/05/06 09:00:50;;;;;;;14.52;12.52;;;;;;;;;;5091518;28;20036;-80
2023/05/06 09:03:16;;;;;;;15.10;13.23;;;;;;;;;;5091952;28;20031;-80
2023/05/06 09:05:42;;;;;;;14.55;12.43;;;;;;;;;;5091940;28;20031;-80
2023/05/06 09:08:09;;;;;;;16.30;13.18;;;;;;;;;;5091687;28;20462;-80
2023/05/06 09:10:43;;;;;;;14.52;12.98;;;;;;;;;;5092044;28;20386;-80
2023/05/06 09:13:12;;;;;;;16.00;14.30;;;;;;;;;;5092265;28;20020;-80
2023/05/06 09:15:48;;;;;;;17.17;13.95;;;;;;;;;;5092306;28;20106;-80
2023/05/06 09:18:15;;;;;;;17.17;13.52;;;;;;;;;;5091585;28;20031;-80
2023/05/06 09:20:42;;;;;;;16.75;14.07;;;;;;;;;;5098529;28;20482;-80
2023/05/06 09:23:08;;;;;;;17.73;14.80;;;;;;;;;;5095154;28;20020;-80
2023/05/06 09:25:35;;;;;;;16.13;14.15;;;;;;;;;;5091663;28;20031;-81
2023/05/06 09:28:05;;;;;;;19.08;15.65;;;;;;;;;;5073504;28;20036;-81
2023/05/06 09:30:31;;;;;;;17.83;14.95;;;;;;;;;;5091600;28;20072;-81
2023/05/06 09:32:57;;;;;;;19.58;15.35;;;;;;;;;;5073127;28;20122;-81
2023/05/06 09:35:27;;;;;;;16.30;14.00;;;;;;;;;;5091322;28;20024;-81
2023/05/06 09:37:53;;;;;;;18.45;15.32;;;;;;;;;;5091459;28;20028;-81
2023/05/06 09:40:19;;;;;;;19.77;16.33;;;;;;;;;;5083240;28;20028;-81
2023/05/06 09:42:46;;;;;;;19.52;16.92;;;;;;;;;;5083481;28;20462;-81
2023/05/06 09:45:15;;;;;;;20.98;16.55;;;;;;;;;;5091089;28;20047;-81
2023/05/06 09:47:41;;;;;;;17.92;16.00;;;;;;;;;;5091429;28;20032;-81
2023/05/06 09:50:08;;;;;;;19.15;16.50;;;;;;;;;;5085119;28;20032;-81
2023/05/06 09:52:34;;;;;;;21.33;16.67;;;;;;;;;;5091558;28;20021;-81
2023/05/06 09:55:00;;;;;;;19.00;15.65;;;;;;;;;;5082111;28;20031;-81
2023/05/06 09:57:29;;;;;;;18.27;16.23;;;;;;;;;;5072735;28;20081;-80
2023/05/06 09:59:57;;;;;;;20.00;15.63;;;;;;;;;;5089226;28;20040;-80
2023/05/06 10:02:23;;;;;;;17.75;15.73;;;;;;;;;;5091145;28;20035;-80
2023/05/06 10:04:49;;;;;;;18.50;14.82;;;;;;;;;;5091394;28;20429;-81
2023/05/06 10:07:17;;;;;;;17.40;15.15;;;;;;;;;;5091110;28;20032;-80
2023/05/06 10:09:43;;;;;;;18.08;15.40;;;;;;;;;;5091415;28;20081;-80
2023/05/06 10:12:09;;;;;;;20.73;16.42;;;;;;;;;;5091227;28;20428;-80
2023/05/06 10:14:36;;;;;;;21.77;16.10;;;;;;;;;;5091357;28;20507;-80
2023/05/06 10:17:06;;;;;;;18.25;14.93;;;;;;;;;;5095327;28;20023;-80
2023/05/06 10:19:33;;;;;;;17.35;14.30;;;;;;;;;;5092454;28;20028;-80
2023/05/06 10:22:02;;;;;;;15.55;13.13;;;;;;;;;;5073119;28;20482;-80
2023/05/06 10:24:32;;;;;;;16.77;13.30;;;;;;;;;;5091059;28;20031;-80
2023/05/06 10:27:02;;;;;;;13.23;10.68;;;;;;;;;;5093920;28;20555;-80
2023/05/06 10:29:28;;;;;;;13.50;11.27;;;;;;;;;;5097576;28;20017;-80
2023/05/06 10:31:56;;;;;;;15.93;12.57;;;;;;;;;;5097595;28;20020;-80
2023/05/06 10:34:23;;;;;;;15.90;13.57;;;;;;;;;;5093296;28;20036;-81
2023/05/06 10:36:51;;;;;;;16.27;13.70;;;;;;;;;;5100892;28;20031;-80
2023/05/06 10:39:38;;;;;;;15.90;13.20;;;;;;;;;;5096979;28;20478;-80
2023/05/06 10:42:05;;;;;;;13.13;9.50;;;;;;;;;;5105490;28;20468;-80
2023/05/06 10:44:50;;;;;;;12.57;9.30;;;;;;;;;;5098686;28;20021;-80
2023/05/06 10:47:16;;;;;;;13.95;11.25;;;;;;;;;;5108128;28;20040;-80
2023/05/06 10:49:44;;;;;;;13.95;11.57;;;;;;;;;;5093542;28;20025;-80
2023/05/06 10:52:12;;;;;;;13.05;9.75;;;;;;;;;;5106949;28;20024;-80
2023/05/06 10:54:50;;;;;;;8.82;5.72;;;;;;;;;;5109013;28;20086;-79
2023/05/06 10:57:17;;;;;;;13.02;9.15;;;;;;;;;;5095369;28;20363;-79
2023/05/06 10:59:46;;;;;;;12.93;9.75;;;;;;;;;;5094305;28;20103;-79
2023/05/06 11:02:13;;;;;;;12.32;9.52;;;;;;;;;;5096518;28;20390;-79
2023/05/06 11:04:39;;;;;;;13.48;10.95;;;;;;;;;;5099416;28;20126;-80
2023/05/06 11:07:12;;;;;;;11.52;9.82;;;;;;;;;;5095434;28;20020;-80
2023/05/06 11:09:53;;;;;;;12.88;10.55;;;;;;;;;;5091683;28;20062;-79
2023/05/06 11:12:20;;;;;;;12.57;9.38;;;;;;;;;;5088651;28;20024;-80
2023/05/06 11:14:46;;;;;;;13.80;9.65;;;;;;;;;;5095393;28;20101;-79
2023/05/06 11:17:32;;;;;;;14.02;9.80;;;;;;;;;;5095446;28;20324;-79
2023/05/06 11:20:18;;;;;;;12.05;9.70;;;;;;;;;;5088298;28;20105;-78
2023/05/06 11:22:44;;;;;;;10.45;8.63;;;;;;;;;;5094911;28;20439;-79
2023/05/06 11:25:10;;;;;;;15.00;11.57;;;;;;;;;;5094580;28;20028;-79
2023/05/06 11:27:37;;;;;;;12.85;10.52;;;;;;;;;;5094831;28;20398;-79
2023/05/06 11:30:04;;;;;;;18.35;12.23;;;;;;;;;;5094417;28;20064;-79
2023/05/06 11:32:30;;;;;;;15.93;11.32;;;;;;;;;;5077537;28;20024;-80
2023/05/06 11:34:56;;;;;;;15.40;11.07;;;;;;;;;;5078416;28;20078;-78
2023/05/06 11:37:25;;;;;;;14.52;10.50;;;;;;;;;;5105605;28;20027;-78
2023/05/06 11:39:51;;;;;;;14.45;11.20;;;;;;;;;;5105956;28;20020;-78
2023/05/06 11:42:24;;;;;;;14.90;11.57;;;;;;;;;;5105858;28;20102;-78
2023/05/06 11:44:50;;;;;;;12.73;10.93;;;;;;;;;;5100789;28;20095;-78
2023/05/06 11:47:15;;;;;;;14.75;11.52;;;;;;;;;;5096522;28;20082;-78
2023/05/06 11:49:42;;;;;;;11.00;8.25;;;;;;;;;;5075645;28;20034;-78
2023/05/06 11:52:09;;;;;;;11.93;10.00;;;;;;;;;;5095650;28;20027;-78
2023/05/06 11:54:36;;;;;;;14.15;10.48;;;;;;;;;;5099966;28;20020;-78
2023/05/06 11:57:02;;;;;;;13.75;10.75;;;;;;;;;;5078903;28;20374;-78
2023/05/06 11:59:29;;;;;;;16.10;11.63;;;;;;;;;;5087231;28;20048;-78
2023/05/06 12:02:00;;;;;;;16.45;13.25;;;;;;;;;;5093601;28;20631;-78
2023/05/06 12:04:26;;;;;;;19.73;12.13;;;;;;;;;;5094251;28;20028;-78
2023/05/06 12:06:54;;;;;;;13.88;12.00;;;;;;;;;;5094294;28;20103;-78
2023/05/06 12:09:21;;;;;;;15.55;11.75;;;;;;;;;;5094294;28;20359;-78
2023/05/06 12:11:47;;;;;;;15.15;11.75;;;;;;;;;;5100440;28;20020;-78
2023/05/06 12:14:13;;;;;;;16.23;12.18;;;;;;;;;;5097330;28;20020;-79
2023/05/06 12:16:40;;;;;;;17.00;12.45;;;;;;;;;;5085264;28;20055;-77
2023/05/06 12:19:06;;;;;;;14.85;12.25;;;;;;;;;;5093689;28;20102;-77
2023/05/06 12:21:32;;;;;;;14.63;12.52;;;;;;;;;;5093738;28;20030;-77
2023/05/06 12:24:01;;;;;;;15.18;12.15;;;;;;;;;;5105652;28;20023;-78
2023/05/06 12:26:28;;;;;;;15.02;12.00;;;;;;;;;;5085197;28;20020;-77
2023/05/06 12:29:09;;;;;;;15.45;12.20;;;;;;;;;;5098310;28;20089;-77
2023/05/06 12:31:35;;;;;;;16.20;11.85;;;;;;;;;;5097539;28;20026;-77
2023/05/06 12:34:01;;;;;;;14.68;10.88;;;;;;;;;;5077432;28;20115;-78
2023/05/06 12:36:27;;;;;;;13.60;11.00;;;;;;;;;;5100053;28;20031;-78
2023/05/06 12:38:54;;;;;;;16.65;11.15;;;;;;;;;;5100217;28;20023;-78
2023/05/06 12:41:20;;;;;;;14.82;11.32;;;;;;;;;;5099625;28;21110;-78
2023/05/06 12:43:47;;;;;;;16.10;11.13;;;;;;;;;;5095319;28;20436;-78
2023/05/06 12:46:14;;;;;;;13.75;10.88;;;;;;;;;;5094666;28;20024;-78
2023/05/06 12:48:41;;;;;;;29.30;22.00;;;;;;;;;;5094570;28;20036;-78
2023/05/06 12:51:17;;;;;;;29.58;22.48;;;;;;;;;;5091779;28;20641;-77
2023/05/06 12:53:43;;;;;;;32.42;22.63;;;;;;;;;;5096161;28;20097;-77
2023/05/06 12:56:09;;;;;;;32.65;24.50;;;;;;;;;;5093916;28;20025;-77
2023/05/06 12:58:36;;;;;;;31.33;21.92;;;;;;;;;;5108752;28;20040;-77
2023/05/06 13:01:03;;;;;;;26.48;17.65;;;;;;;;;;5110084;28;20125;-77
2023/05/06 13:03:29;;;;;;;29.90;20.52;;;;;;;;;;5093861;28;20374;-77
2023/05/06 13:05:55;;;;;;;23.83;15.98;;;;;;;;;;5094372;28;20454;-78
2023/05/06 13:08:21;;;;;;;28.17;18.52;;;;;;;;;;5091955;28;20064;-77
2023/05/06 13:10:47;;;;;;;30.77;20.95;;;;;;;;;;5073523;28;20024;-78
2023/05/06 13:13:13;;;;;;;31.70;21.33;;;;;;;;;;5092333;28;20031;-77
2023/05/06 13:15:39;;;;;;;31.10;22.80;;;;;;;;;;5097497;28;20035;-77
2023/05/06 13:18:05;;;;;;;27.30;18.67;;;;;;;;;;5094702;28;20048;-77
2023/05/06 13:20:31;;;;;;;33.47;20.73;;;;;;;;;;5092087;28;20028;-78
2023/05/06 13:22:58;;;;;;;30.05;20.27;;;;;;;;;;5091661;28;20024;-78
2023/05/06 13:25:24;;;;;;;32.15;21.02;;;;;;;;;;5092636;28;20016;-78
2023/05/06 13:27:50;;;;;;;28.40;19.42;;;;;;;;;;5073794;28;20085;-77
2023/05/06 13:30:16;;;;;;;27.40;16.05;;;;;;;;;;5091374;28;20091;-78
2023/05/06 13:32:41;;;;;;;24.10;14.65;;;;;;;;;;5074431;28;20080;-78
2023/05/06 13:35:08;;;;;;;25.80;15.23;;;;;;;;;;5092497;28;20040;-78
2023/05/06 13:37:34;;;;;;;29.20;16.70;;;;;;;;;;5092850;28;20028;-78
2023/05/06 13:40:00;;;;;;;27.60;16.63;;;;;;;;;;5092394;28;20509;-78
2023/05/06 13:42:26;;;;;;;24.77;15.95;;;;;;;;;;5073952;28;20116;-78
2023/05/06 13:44:51;;;;;;;26.70;13.75;;;;;;;;;;5091462;28;20056;-77
2023/05/06 13:47:41;;;;;;;22.88;13.90;;;;;;;;;;5095436;28;20019;-78
2023/05/06 13:50:07;;;;;;;18.23;9.20;;;;;;;;;;5096537;28;20107;-78
2023/05/06 13:52:33;;;;;;;17.23;9.52;;;;;;;;;;5092021;28;20032;-77
2023/05/06 13:54:59;;;;;;;13.55;7.47;;;;;;;;;;5091578;28;20023;-77
2023/05/06 13:57:25;;;;;;;15.95;7.53;;;;;;;;;;5091922;28;20035;-77
2023/05/06 13:59:51;;;;;;;7.60;4.68;;;;;;;;;;5089902;28;20052;-77
2023/05/06 14:02:17;;;;;;;9.52;3.80;;;;;;;;;;5076331;28;20111;-77
2023/05/06 14:04:44;;;;;;;17.77;8.15;;;;;;;;;;5091109;28;20103;-77
2023/05/06 14:07:09;;;;;;;18.25;10.07;;;;;;;;;;5100202;28;20023;-78
2023/05/06 14:09:35;;;;;;;18.60;10.00;;;;;;;;;;5094403;28;20028;-77
2023/05/06 14:12:01;;;;;;;16.90;9.38;;;;;;;;;;5092797;28;20024;-77
2023/05/06 14:14:28;;;;;;;15.75;8.48;;;;;;;;;;5101362;28;20474;-77
2023/05/06 14:16:54;;;;;;;17.30;9.55;;;;;;;;;;5096671;28;20028;-77
2023/05/06 14:19:20;;;;;;;14.07;8.13;;;;;;;;;;5091129;28;20032;-77
2023/05/06 14:21:46;;;;;;;12.00;7.60;;;;;;;;;;5090778;28;20077;-77
2023/05/06 14:24:12;;;;;;;18.13;8.68;;;;;;;;;;5091217;28;20423;-77